createdAt,value
2018-12-04T06:19:01.174Z,0.1
2018-12-04T06:21:01.275Z,0.2
2018-12-04T06:22:01.002Z,0.3
2018-12-04T06:24:01.036Z,0.4
2018-12-04T06:25:01.062Z,0.5
2018-12-04T06:26:01.232Z,0.6
2018-12-04T06:27:01.054Z,0.7
2018-12-04T06:28:01.000Z,0.9
2018-12-04T06:29:01.073Z,1.0
2018-12-04T06:30:01.054Z,1.2
2018-12-04T06:31:01.180Z,1.4
2018-12-04T06:32:01.031Z,1.7
2018-12-04T06:33:01.034Z,1.9
2018-12-04T06:34:01.001Z,2.1
2018-12-04T06:35:01.066Z,2.4
2018-12-04T06:36:02.230Z,2.7
2018-12-04T06:37:01.031Z,3.0
2018-12-04T06:38:01.004Z,3.4
2018-12-04T06:39:01.100Z,3.9
2018-12-04T06:40:01.059Z,4.5
2018-12-04T06:41:01.242Z,5.2
2018-12-04T06:42:01.009Z,6.0
2018-12-04T06:43:01.036Z,7.0
2018-12-04T06:44:01.066Z,8.2
2018-12-04T06:45:01.007Z,9.6
2018-12-04T06:46:01.206Z,11.2
2018-12-04T06:47:01.010Z,13.1
2018-12-04T06:48:01.039Z,15.3
2018-12-04T06:49:02.056Z,18.0
2018-12-04T06:50:01.040Z,21.1
2018-12-04T06:51:01.244Z,24.9
2018-12-04T06:52:01.038Z,29.4
2018-12-04T06:53:01.397Z,34.7
2018-12-04T06:54:01.064Z,41.0
2018-12-04T06:55:01.041Z,48.5
2018-12-04T06:56:01.180Z,57.3
2018-12-04T06:57:01.038Z,67.9
2018-12-04T06:58:01.105Z,80.3
2018-12-04T06:59:01.073Z,94.8
2018-12-04T07:00:01.008Z,111.8
2018-12-04T07:01:01.216Z,131.6
2018-12-04T07:02:01.009Z,154.4
2018-12-04T07:03:01.043Z,180.5
2018-12-04T07:04:01.078Z,210.1
2018-12-04T07:05:01.051Z,243.5
2018-12-04T07:06:02.163Z,280.9
2018-12-04T07:07:01.009Z,322.5
2018-12-04T07:08:01.047Z,368.5
2018-12-04T07:09:01.082Z,419.2
2018-12-04T07:10:01.080Z,474.5
2018-12-04T07:11:02.453Z,534.5
2018-12-04T07:12:02.555Z,601.4
2018-12-04T07:13:01.020Z,677.2
2018-12-04T07:14:01.084Z,756.2
2018-12-04T07:15:01.017Z,838.2
2018-12-04T07:16:01.384Z,923.3
2018-12-04T07:17:01.046Z,1010.9
2018-12-04T07:18:01.062Z,1102.7
2018-12-04T07:19:01.085Z,1201.1
2018-12-04T07:20:01.051Z,1307.3
2018-12-04T07:21:01.200Z,1421.5
2018-12-04T07:22:01.114Z,1542.9
2018-12-04T07:23:01.020Z,1671.4
2018-12-04T07:24:01.090Z,1806.9
2018-12-04T07:25:01.052Z,1949.3
2018-12-04T07:26:01.202Z,2098.5
2018-12-04T07:27:01.051Z,2252.7
2018-12-04T07:28:02.783Z,2409.6
2018-12-04T07:29:01.085Z,2575.3
2018-12-04T07:30:01.051Z,2750.7
2018-12-04T07:31:01.264Z,2936.6
2018-12-04T07:32:01.063Z,3134.9
2018-12-04T07:33:01.025Z,3344.5
2018-12-04T07:34:01.092Z,3562.3
2018-12-04T07:35:01.064Z,3787.7
2018-12-04T07:36:01.203Z,4022.7
2018-12-04T07:37:01.056Z,4272.3
2018-12-04T07:38:01.121Z,4505.4
2018-12-04T07:39:01.060Z,4911.1
2018-12-04T07:40:01.085Z,5392.7
2018-12-04T07:41:01.207Z,5977.7
2018-12-04T07:42:01.131Z,6556.9
2018-12-04T07:43:01.061Z,7041.5
2018-12-04T07:44:01.024Z,7426.1
2018-12-04T07:45:01.084Z,7705.1
2018-12-04T07:46:01.209Z,7902.3
2018-12-04T07:47:01.058Z,8066.4
2018-12-04T07:48:01.028Z,8223.3
2018-12-04T07:49:02.020Z,8394.3
2018-12-04T07:50:01.086Z,8560.6
2018-12-04T07:51:01.268Z,8711.9
2018-12-04T07:52:01.030Z,8853.6
2018-12-04T07:53:01.029Z,9027.1
2018-12-04T07:54:01.060Z,9044.1
2018-12-04T07:55:01.089Z,9000.0
2018-12-04T07:56:02.350Z,8863.3
2018-12-04T07:57:01.059Z,8741.7
2018-12-04T07:58:01.060Z,8725.1
2018-12-04T07:59:01.063Z,8819.4
2018-12-04T08:00:01.094Z,9030.7
2018-12-04T08:01:01.230Z,9337.9
2018-12-04T08:02:01.064Z,9698.9
2018-12-04T08:03:01.103Z,10107.4
2018-12-04T08:04:01.770Z,10545.9
2018-12-04T08:05:01.030Z,11012.3
2018-12-04T08:06:01.275Z,11514.7
2018-12-04T08:07:01.064Z,12036.3
2018-12-04T08:08:01.033Z,12556.9
2018-12-04T08:09:01.038Z,13089.8
2018-12-04T08:10:01.071Z,13647.5
2018-12-04T08:11:01.209Z,14237.7
2018-12-04T08:12:01.036Z,14843.3
2018-12-04T08:13:01.041Z,15415.7
2018-12-04T08:14:01.094Z,15964.9
2018-12-04T08:15:01.076Z,16488.1
2018-12-04T08:16:01.209Z,16990.9
2018-12-04T08:17:01.069Z,17463.6
2018-12-04T08:18:01.070Z,17883.7
2018-12-04T08:19:01.096Z,18265.5
2018-12-04T08:20:01.312Z,18633.8
2018-12-04T08:21:01.209Z,18978.7
2018-12-04T08:22:01.066Z,19296.9
2018-12-04T08:23:01.039Z,19597.7
2018-12-04T08:24:01.101Z,19898.7
2018-12-04T08:25:01.064Z,20200.1
2018-12-04T08:26:01.217Z,20489.5
2018-12-04T08:27:01.132Z,20734.5
2018-12-04T08:28:01.068Z,21025.9
2018-12-04T08:29:01.044Z,21319.7
2018-12-04T08:30:01.101Z,21626.0
2018-12-04T08:31:01.281Z,21988.1
2018-12-04T08:32:01.051Z,22422.8
2018-12-04T08:33:01.072Z,22876.3
2018-12-04T08:34:01.067Z,23292.8
2018-12-04T08:35:01.067Z,23661.2
2018-12-04T08:36:02.029Z,24094.5
2018-12-04T08:37:01.071Z,24503.6
2018-12-04T08:38:01.070Z,24791.9
2018-12-04T08:39:01.040Z,25099.6
2018-12-04T08:40:01.096Z,25360.8
2018-12-04T08:41:01.661Z,25637.5
2018-12-04T08:42:01.075Z,25895.3
2018-12-04T08:43:01.075Z,26170.5
2018-12-04T08:44:01.134Z,26472.3
2018-12-04T08:45:01.097Z,26829.5
2018-12-04T08:46:01.286Z,27219.1
2018-12-04T08:47:01.080Z,27644.4
2018-12-04T08:48:01.100Z,28090.7
2018-12-04T08:49:01.040Z,28695.5
2018-12-04T08:50:01.109Z,29425.1
2018-12-04T08:51:01.279Z,30263.7
2018-12-04T08:52:01.071Z,31038.7
2018-12-04T08:53:02.154Z,31686.0
2018-12-04T08:54:01.077Z,32291.9
2018-12-04T08:55:01.076Z,33299.7
2018-12-04T08:56:01.247Z,34448.9
2018-12-04T08:57:01.046Z,36288.8
2018-12-04T08:58:01.086Z,38733.6
2018-12-04T08:59:01.079Z,41164.7
2018-12-04T09:00:01.046Z,43184.3
2018-12-04T09:01:01.382Z,44996.7
2018-12-04T09:02:01.081Z,46527.9
2018-12-04T09:03:01.083Z,47941.6
2018-12-04T09:04:01.082Z,49441.7
2018-12-04T09:05:01.258Z,50711.0
2018-12-04T09:06:01.299Z,50795.8
2018-12-04T09:07:01.052Z,51165.7
2018-12-04T09:08:01.080Z,50970.7
2018-12-04T09:09:01.048Z,50838.9
2018-12-04T09:10:02.193Z,50760.3
2018-12-04T09:11:01.225Z,50702.6
2018-12-04T09:12:01.050Z,50034.6
2018-12-04T09:13:01.089Z,48813.3
2018-12-04T09:14:01.053Z,46906.9
2018-12-04T09:15:01.082Z,45287.3
2018-12-04T09:16:01.282Z,43918.9
2018-12-04T09:17:01.056Z,43477.9
2018-12-04T09:18:01.049Z,43471.5
2018-12-04T09:19:01.057Z,43318.1
2018-12-04T09:20:01.078Z,42881.0
2018-12-04T09:21:01.279Z,43055.0
2018-12-04T09:22:01.106Z,43240.1
2018-12-04T09:23:02.122Z,44110.3
2018-12-04T09:24:01.074Z,45937.4
2018-12-04T09:25:01.136Z,47613.7
2018-12-04T09:26:01.353Z,49067.5
2018-12-04T09:27:05.431Z,50466.1
2018-12-04T09:28:01.090Z,51758.5
2018-12-04T09:29:01.109Z,53718.5
2018-12-04T09:30:01.115Z,55572.7
2018-12-04T09:31:01.287Z,57189.1
2018-12-04T09:32:01.091Z,57713.1
2018-12-04T09:33:01.091Z,57611.4
2018-12-04T09:34:01.097Z,57247.3
2018-12-04T09:35:01.055Z,57149.1
2018-12-04T09:36:01.537Z,57309.7
2018-12-04T09:37:01.062Z,57252.4
2018-12-04T09:38:01.095Z,57441.7
2018-12-04T09:39:01.096Z,56648.1
2018-12-04T09:40:02.134Z,55453.0
2018-12-04T09:41:01.270Z,54058.1
2018-12-04T09:42:01.098Z,52643.1
2018-12-04T09:43:04.116Z,51276.3
2018-12-04T09:44:01.063Z,49818.7
2018-12-04T09:45:01.092Z,48414.8
2018-12-04T09:46:01.280Z,47329.1
2018-12-04T09:47:01.103Z,47244.6
2018-12-04T09:48:01.062Z,48092.9
2018-12-04T09:49:01.128Z,49117.9
2018-12-04T09:50:01.069Z,50285.2
2018-12-04T09:51:01.267Z,51375.4
2018-12-04T09:52:01.113Z,52663.6
2018-12-04T09:53:01.453Z,53824.1
2018-12-04T09:54:01.067Z,54928.2
2018-12-04T09:55:01.102Z,56123.3
2018-12-04T09:56:01.335Z,56873.3
2018-12-04T09:57:01.074Z,57939.9
2018-12-04T09:58:01.106Z,59306.7
2018-12-04T09:59:01.072Z,60764.3
2018-12-04T10:00:01.069Z,61728.2
2018-12-04T10:02:01.480Z,62501.7
2018-12-04T10:03:01.082Z,63172.3
2018-12-04T10:07:01.225Z,63370.5
2018-12-04T10:12:01.294Z,64015.5
2018-12-04T10:13:01.061Z,64363.9
2018-12-04T10:15:01.113Z,64363.9
2018-12-04T10:16:01.083Z,64965.6
2018-12-04T10:17:01.235Z,65535.0
2018-12-04T10:30:06.099Z,65535.0
2018-12-04T10:45:01.102Z,65535.0
2018-12-04T11:00:01.356Z,65535.0
2018-12-04T11:15:01.089Z,65535.0
2018-12-04T11:27:01.233Z,64481.6
2018-12-04T11:28:01.062Z,63584.7
2018-12-04T11:29:01.176Z,62876.5
2018-12-04T11:30:01.099Z,62876.5
2018-12-04T11:36:01.761Z,62807.6
2018-12-04T11:42:01.152Z,63861.0
2018-12-04T11:43:01.068Z,64757.9
2018-12-04T11:44:06.107Z,65466.1
2018-12-04T11:45:01.247Z,65466.1
2018-12-04T11:47:01.099Z,64944.7
2018-12-04T11:49:06.095Z,63454.5
2018-12-04T11:50:02.302Z,62340.8
2018-12-04T11:51:01.233Z,61319.7
2018-12-04T11:52:01.094Z,59517.1
2018-12-04T11:53:01.084Z,57232.1
2018-12-04T11:54:01.090Z,54930.2
2018-12-04T11:55:01.090Z,52808.2
2018-12-04T11:56:01.234Z,50727.7
2018-12-04T11:57:01.091Z,48614.7
2018-12-04T11:58:06.088Z,46522.1
2018-12-04T11:59:01.091Z,44744.1
2018-12-04T12:00:01.091Z,43145.8
2018-12-04T12:03:01.118Z,42351.3
2018-12-04T12:04:06.098Z,42272.6
2018-12-04T12:05:01.094Z,42292.7
2018-12-04T12:06:01.237Z,42441.0
2018-12-04T12:07:02.087Z,44086.3
2018-12-04T12:08:01.091Z,46371.3
2018-12-04T12:09:06.095Z,48673.2
2018-12-04T12:10:01.089Z,50795.2
2018-12-04T12:11:01.298Z,52875.7
2018-12-04T12:12:01.096Z,54784.1
2018-12-04T12:13:01.062Z,55094.2
2018-12-04T12:14:01.116Z,56448.1
2018-12-04T12:15:01.094Z,58046.4
2018-12-04T12:16:01.230Z,57575.6
2018-12-04T12:18:01.060Z,58891.5
2018-12-04T12:19:01.126Z,60460.4
2018-12-04T12:20:01.843Z,61554.1
2018-12-04T12:21:01.238Z,62426.9
2018-12-04T12:22:01.097Z,62653.0
2018-12-04T12:27:01.239Z,62857.7
2018-12-04T12:28:01.229Z,64640.1
2018-12-04T12:29:06.107Z,64013.8
2018-12-04T12:30:01.096Z,62678.0
2018-12-04T12:31:01.063Z,63148.8
2018-12-04T12:33:01.301Z,62702.7
2018-12-04T12:34:01.128Z,61185.0
2018-12-04T12:35:01.069Z,59631.4
2018-12-04T12:44:01.462Z,60681.8
2018-12-04T12:45:01.067Z,62017.6
2018-12-04T12:48:01.124Z,62463.7
2018-12-04T12:50:01.226Z,63981.4
2018-12-04T12:51:01.082Z,65535.0
2018-12-04T13:00:01.342Z,65535.0
2018-12-04T13:15:01.090Z,65535.0
2018-12-04T13:27:01.218Z,64293.1
2018-12-04T13:28:01.115Z,63128.1
2018-12-04T13:29:01.091Z,61724.9
2018-12-04T13:30:01.113Z,60166.5
2018-12-04T13:31:01.237Z,58874.5
2018-12-04T13:32:01.094Z,56999.5
2018-12-04T13:33:01.119Z,54931.9
2018-12-04T13:34:01.096Z,52535.8
2018-12-04T13:35:01.119Z,50034.4
2018-12-04T13:36:02.333Z,47920.3
2018-12-04T13:37:01.094Z,47083.3
2018-12-04T13:38:01.120Z,46280.3
2018-12-04T13:39:01.102Z,44855.9
2018-12-04T13:40:01.112Z,43167.1
2018-12-04T13:41:01.237Z,41054.6
2018-12-04T13:42:01.104Z,39888.0
2018-12-04T13:43:06.109Z,38255.9
2018-12-04T13:44:01.231Z,36912.3
2018-12-04T13:45:01.097Z,35705.7
2018-12-04T13:46:01.250Z,34272.2
2018-12-04T13:47:01.143Z,33344.3
2018-12-04T13:48:06.110Z,32606.4
2018-12-04T13:49:01.441Z,32380.3
2018-12-04T13:50:01.100Z,32349.5
2018-12-04T13:51:01.311Z,32079.3
2018-12-04T13:53:06.121Z,31087.0
2018-12-04T13:54:01.063Z,30380.4
2018-12-04T13:55:01.090Z,30367.1
2018-12-04T13:56:01.059Z,30097.6
2018-12-04T13:57:01.294Z,29712.2
2018-12-04T13:58:01.116Z,29446.8
2018-12-04T13:59:01.089Z,29529.8
2018-12-04T14:00:06.084Z,29469.7
2018-12-04T14:01:01.217Z,29373.2
2018-12-04T14:02:01.267Z,29206.4
2018-12-04T14:03:01.055Z,29084.8
2018-12-04T14:04:01.109Z,28933.7
2018-12-04T14:05:02.487Z,28552.9
2018-12-04T14:06:02.075Z,28049.3
2018-12-04T14:07:01.254Z,27401.5
2018-12-04T14:08:01.056Z,26298.1
2018-12-04T14:09:01.120Z,24935.5
2018-12-04T14:10:01.114Z,23431.0
2018-12-04T14:11:01.086Z,22427.8
2018-12-04T14:12:01.247Z,21922.2
2018-12-04T14:13:01.119Z,21479.5
2018-12-04T14:14:01.094Z,21101.0
2018-12-04T14:15:01.128Z,21004.1
2018-12-04T14:16:01.095Z,21202.1
2018-12-04T14:17:01.262Z,21364.0
2018-12-04T14:18:01.115Z,21172.9
2018-12-04T14:19:01.793Z,20733.5
2018-12-04T14:20:01.128Z,20224.1
2018-12-04T14:21:01.088Z,19701.0
2018-12-04T14:22:01.301Z,19171.0
2018-12-04T14:23:01.100Z,18619.1
2018-12-04T14:24:06.103Z,18202.6
2018-12-04T14:25:01.066Z,18074.0
2018-12-04T14:26:01.135Z,18048.7
2018-12-04T14:27:01.264Z,18023.1
2018-12-04T14:28:01.114Z,18121.1
2018-12-04T14:29:06.095Z,18237.9
2018-12-04T14:30:01.122Z,18173.9
2018-12-04T14:31:01.077Z,17675.3
2018-12-04T14:32:01.267Z,17295.4
2018-12-04T14:33:01.103Z,17328.1
2018-12-04T14:34:06.100Z,17353.5
2018-12-04T14:35:01.103Z,17305.9
2018-12-04T14:36:01.128Z,17217.9
2018-12-04T14:37:01.273Z,17072.0
2018-12-04T14:38:01.100Z,16792.1
2018-12-04T14:39:01.067Z,16265.9
2018-12-04T14:40:03.745Z,15509.4
2018-12-04T14:41:01.112Z,14659.8
2018-12-04T14:42:01.251Z,13819.5
2018-12-04T14:43:01.107Z,12848.7
2018-12-04T14:45:01.081Z,11594.2
2018-12-04T14:46:01.085Z,10344.1
2018-12-04T14:47:01.263Z,9332.8
2018-12-04T14:48:01.078Z,8259.7
2018-12-04T14:49:01.081Z,7106.9
2018-12-04T14:50:01.083Z,6211.0
2018-12-04T14:51:01.104Z,5517.9
2018-12-04T14:52:01.311Z,4946.4
2018-12-04T14:53:01.137Z,4490.7
2018-12-04T14:54:01.108Z,4107.3
2018-12-04T14:55:01.146Z,3759.0
2018-12-04T14:56:01.093Z,3412.2
2018-12-04T14:57:01.463Z,3070.6
2018-12-04T14:58:01.109Z,2754.7
2018-12-04T14:59:01.104Z,2550.3
2018-12-04T15:00:01.101Z,2577.9
2018-12-04T15:01:01.073Z,2583.4
2018-12-04T15:02:01.254Z,2533.9
2018-12-04T15:03:06.122Z,2483.2
2018-12-04T15:04:01.105Z,2474.3
2018-12-04T15:05:01.069Z,2486.1
2018-12-04T15:06:01.191Z,2475.1
2018-12-04T15:07:01.231Z,2420.4
2018-12-04T15:08:01.064Z,2302.3
2018-12-04T15:09:01.160Z,2160.3
2018-12-04T15:10:01.075Z,2025.8
2018-12-04T15:11:01.056Z,1894.7
2018-12-04T15:12:01.220Z,1760.8
2018-12-04T15:13:01.058Z,1628.1
2018-12-04T15:14:01.087Z,1497.9
2018-12-04T15:15:02.426Z,1371.7
2018-12-04T15:16:01.088Z,1250.5
2018-12-04T15:17:01.267Z,1135.6
2018-12-04T15:18:01.117Z,1028.0
2018-12-04T15:19:01.100Z,927.5
2018-12-04T15:20:01.161Z,833.9
2018-12-04T15:21:01.113Z,747.1
2018-12-04T15:22:01.271Z,666.9
2018-12-04T15:23:01.129Z,593.0
2018-12-04T15:24:01.097Z,525.5
2018-12-04T15:25:01.126Z,464.4
2018-12-04T15:26:01.059Z,409.1
2018-12-04T15:27:02.180Z,359.4
2018-12-04T15:28:06.129Z,314.9
2018-12-04T15:29:01.060Z,275.2
2018-12-04T15:30:01.108Z,239.9
2018-12-04T15:31:01.102Z,208.5
2018-12-04T15:32:01.246Z,180.9
2018-12-04T15:33:06.135Z,156.7
2018-12-04T15:34:01.096Z,135.4
2018-12-04T15:36:01.128Z,116.5
2018-12-04T15:37:01.236Z,100.1
2018-12-04T15:38:01.083Z,85.9
2018-12-04T15:39:01.103Z,73.6
2018-12-04T15:40:01.107Z,63.0
2018-12-04T15:41:01.106Z,53.9
2018-12-04T15:42:01.275Z,46.0
2018-12-04T15:43:06.119Z,39.3
2018-12-04T15:44:01.340Z,33.4
2018-12-04T15:45:01.114Z,28.3
2018-12-04T15:46:01.113Z,24.0
2018-12-04T15:47:01.227Z,20.3
2018-12-04T15:48:06.100Z,17.1
2018-12-04T15:49:01.082Z,14.3
2018-12-04T15:50:01.095Z,11.9
2018-12-04T15:51:01.103Z,10.2
2018-12-04T15:52:01.449Z,8.8
2018-12-04T15:53:06.096Z,7.5
2018-12-04T15:54:01.137Z,6.5
2018-12-04T15:55:01.212Z,5.6
2018-12-04T15:56:01.052Z,4.8
2018-12-04T15:57:02.284Z,4.1
2018-12-04T15:58:01.111Z,3.5
2018-12-04T15:59:01.086Z,3.1
2018-12-04T16:00:01.084Z,2.7
2018-12-04T16:01:01.056Z,2.3
2018-12-04T16:02:01.255Z,2.1
2018-12-04T16:03:01.111Z,1.8
2018-12-04T16:04:01.059Z,1.5
2018-12-04T16:05:01.060Z,1.3
2018-12-04T16:06:01.090Z,1.1
2018-12-04T16:07:01.239Z,0.9
2018-12-04T16:08:01.120Z,0.8
2018-12-04T16:09:01.063Z,0.7
2018-12-04T16:10:02.276Z,0.5
2018-12-04T16:12:01.429Z,0.4
2018-12-04T16:13:06.101Z,0.3
2018-12-04T16:15:01.095Z,0.2
2018-12-04T16:16:01.093Z,0.1
